UNGO2: Muddy Boggy, Unger, OK

                                SHEF ID:       UNGO2     Muddy Boggy Creek near Unger, OK
STATION TYPE:
Regulating: Stage = 39.00, Flow = 17600

PRECIP STAGE STAGE(2) RIV-FLOW BAT-LOAD
in ft ft cfs volt
Ccp-Rev Ccp-Rev Ccp-Rev Ccp-Rev Ccp-Rev
(America/Chicago)
04/28 00:00 0.00 19.80 ---- 3090 12.89
04/28 01:00 0.00 19.76 ---- 3080 12.89
04/28 02:00 0.00 19.74 ---- 3070 12.81
04/28 03:00 0.00 19.69 ---- 3040 12.81
04/28 04:00 0.00 19.65 ---- 3030 12.81
04/28 05:00 0.00 19.62 ---- 3010 12.81
04/28 06:00 0.00 19.56 ---- 2990 12.81
04/28 07:00 0.00 19.57 ---- 3000 12.81
04/28 08:00 0.00 19.55 ---- 2990 12.81
04/28 09:00 0.00 19.51 ---- 2970 12.89
04/28 10:00 0.00 19.50 ---- 2970 12.89
04/28 11:00 0.01 19.50 ---- 2970 12.81
04/28 12:00 0.02 19.49 ---- 2960 13.05
04/28 13:00 0.00 19.51 ---- 2970 13.21
04/28 14:00 0.00 19.52 ---- 2970 13.29
04/28 15:00 0.00 19.50 ---- 2970 13.21
04/28 16:00 0.00 19.53 ---- 2980 13.05
04/28 17:00 0.07 19.53 ---- 2980 12.97
04/28 18:00 0.01 19.55 ---- 2990 12.97
04/28 19:00 0.00 19.56 ---- 2990 13.05
04/28 20:00 0.00 19.59 ---- 3000 12.97
04/28 21:00 0.00 19.64 ---- 3020 12.89
04/28 22:00 0.00 19.80 ---- 3090 12.89
04/28 23:00 0.00 20.06 ---- 3200 12.81
Data processed at Wed 29Apr2026 04:47 GMT

NOTICE: If you are parsing this page

Please convert to using our Data API. Starting early 2026 we will be migrating to: https://water.usace.army.mil with modern pages rendered in JavaScript. When this migration completes you will no longer be able to scrape this page! CWMSDataAPI (CDA)

Timeseries IDs (TSIDs)

TSIDs used from left to right in the data table
UNGE.Precip-Inc.Total.1Hour.1Hour.Ccp-Rev
UNGE.Stage.Inst.1Hour.0.Ccp-Rev
UNGE.Stage-Alt.Inst.1Hour.0.Ccp-Rev
UNGE.Flow.Inst.1Hour.0.Ccp-Rev
UNGE.Volt-Battery Load.Inst.1Hour.0.Ccp-Rev

                            

All information presented herein is the property of the government of the United States of America and may be revised or deleted at any time without prior notice. Dissemination of this information without the expressed written consent of the Public Affairs Office, Tulsa District U.S. Army Corps of Engineers is strictly prohibited. These data are gathered electronically and, as presented, have NOT undergone any form of quality control. These data are NOT guaranteed to be valid or correct.